Time;durP1;ratioP1;P1;durP2;ratioP2;P2;SDS_P1;SDS_P2;PMS_P1;PMS_P2;Temp;Humidity;BMP_temperature;BMP_pressure;BME280_temperature;BME280_humidity;BME280_pressure;Samples;Min_cycle;Max_cycle;Signal;HPM_P1;HPM_P2
2023/07/24 00:00:43;;;;;;;1.15;0.60;;;;;;;22.01;47.69;100402.47;16112684;19;130615;-59
2023/07/24 00:06:05;;;;;;;0.77;0.50;;;;;;;22.00;47.98;100406.38;16108385;19;129848;-58
2023/07/24 00:11:26;;;;;;;0.50;0.40;;;;;;;22.00;47.42;100399.94;16106030;19;131174;-59
2023/07/24 00:16:48;;;;;;;1.45;0.60;;;;;;;22.00;47.48;100392.44;16105303;19;130507;-59
2023/07/24 00:22:10;;;;;;;0.50;0.40;;;;;;;21.99;47.93;100387.97;16102800;19;130421;-59
2023/07/24 00:27:32;;;;;;;0.40;0.30;;;;;;;21.98;47.64;100377.94;16109627;19;129574;-59
2023/07/24 00:32:54;;;;;;;1.45;0.47;;;;;;;21.99;47.75;100371.28;16109051;19;130358;-59
2023/07/24 00:38:16;;;;;;;1.17;0.50;;;;;;;21.98;47.93;100358.47;16106003;19;129762;-58
2023/07/24 00:43:38;;;;;;;0.80;0.40;;;;;;;21.97;47.75;100365.97;16107043;19;130620;-58
2023/07/24 00:49:02;;;;;;;0.40;0.40;;;;;;;21.97;47.86;100356.78;16109836;19;129753;-58
2023/07/24 00:54:24;;;;;;;0.75;0.43;;;;;;;21.96;47.63;100350.41;16110153;19;130795;-58
2023/07/24 00:59:46;;;;;;;0.60;0.40;;;;;;;21.95;47.84;100340.38;16107255;19;130644;-58
2023/07/24 01:05:10;;;;;;;1.00;0.55;;;;;;;21.96;47.40;100360.69;16103801;19;130755;-59
2023/07/24 01:10:33;;;;;;;1.03;0.40;;;;;;;21.95;47.42;100350.66;16104611;19;129564;-59
2023/07/24 01:16:02;;;;;;;1.90;0.35;;;;;;;21.96;47.30;100339.25;16105696;19;131607;-59
2023/07/24 01:21:37;;;;;;;1.75;0.45;;;;;;;21.96;47.51;100327.28;16114764;19;130077;-59
2023/07/24 01:26:59;;;;;;;0.50;0.43;;;;;;;21.93;47.82;100306.41;16117955;19;130956;-59
2023/07/24 01:32:21;;;;;;;0.93;0.30;;;;;;;21.94;47.74;100296.06;16116175;19;130563;-59
2023/07/24 01:37:46;;;;;;;3.08;0.38;;;;;;;21.92;47.79;100282.44;16119508;19;129959;-59
2023/07/24 01:43:09;;;;;;;0.90;0.40;;;;;;;21.92;47.32;100284.38;16119753;19;130336;-58
2023/07/24 01:48:31;;;;;;;0.20;0.20;;;;;;;21.91;47.48;100278.00;16117698;19;130365;-58
2023/07/24 01:53:52;;;;;;;2.28;0.28;;;;;;;21.91;47.55;100293.88;16116874;19;130240;-59
2023/07/24 01:59:17;;;;;;;0.20;0.20;;;;;;;21.91;47.54;100302.25;16118437;19;130267;-59
2023/07/24 02:04:39;;;;;;;0.43;0.27;;;;;;;21.91;47.55;100318.94;16119332;19;131354;-59
2023/07/24 02:10:01;;;;;;;0.60;0.38;;;;;;;21.91;47.26;100318.94;16115501;19;129788;-59
2023/07/24 02:15:23;;;;;;;0.50;0.35;;;;;;;21.89;47.40;100305.28;16115967;19;130679;-59
2023/07/24 02:20:50;;;;;;;0.75;0.40;;;;;;;21.91;47.25;100310.59;16118595;19;129865;-59
2023/07/24 02:26:12;;;;;;;0.52;0.30;;;;;;;21.91;47.47;100316.16;16117404;19;133615;-59
2023/07/24 02:31:34;;;;;;;0.30;0.30;;;;;;;21.89;47.67;100294.16;16112686;19;129401;-59
2023/07/24 02:36:56;;;;;;;1.58;0.30;;;;;;;21.88;47.75;100284.13;16114815;19;130227;-59
2023/07/24 02:42:17;;;;;;;1.33;0.40;;;;;;;21.90;47.47;100272.72;16117695;19;130175;-60
2023/07/24 02:47:39;;;;;;;1.02;0.50;;;;;;;21.91;47.28;100275.22;16110514;19;132068;-61
2023/07/24 02:53:02;;;;;;;0.73;0.60;;;;;;;21.91;47.35;100243.75;16119061;19;130938;-61
2023/07/24 02:58:23;;;;;;;0.55;0.30;;;;;;;21.90;47.41;100258.78;16114239;19;129653;-61
2023/07/24 03:03:45;;;;;;;0.85;0.40;;;;;;;21.88;47.66;100239.56;16111584;19;130471;-61
2023/07/24 03:09:07;;;;;;;0.63;0.40;;;;;;;21.89;47.41;100243.22;16111923;19;130887;-61
2023/07/24 03:14:29;;;;;;;1.70;0.30;;;;;;;21.87;47.62;100251.00;16117575;19;131884;-61
2023/07/24 03:19:51;;;;;;;2.35;0.50;;;;;;;21.87;47.58;100257.41;16114238;19;130529;-61
2023/07/24 03:25:13;;;;;;;1.00;0.55;;;;;;;21.87;47.49;100251.81;16113930;19;130380;-61
2023/07/24 03:30:35;;;;;;;0.30;0.28;;;;;;;21.86;47.65;100274.41;16116647;19;131179;-61
2023/07/24 03:35:57;;;;;;;1.45;0.38;;;;;;;21.86;47.49;100293.88;16113047;19;133163;-61
2023/07/24 03:41:19;;;;;;;2.33;0.52;;;;;;;21.86;47.43;100279.97;16106175;19;129571;-61
2023/07/24 03:46:40;;;;;;;0.70;0.32;;;;;;;21.86;47.66;100279.97;16111320;19;133638;-61
2023/07/24 03:52:03;;;;;;;0.73;0.43;;;;;;;21.86;47.58;100302.25;16109820;19;129910;-61
2023/07/24 03:57:25;;;;;;;0.63;0.40;;;;;;;21.86;47.50;100274.41;16113201;19;129938;-62
2023/07/24 04:02:47;;;;;;;0.30;0.30;;;;;;;21.85;47.59;100269.94;16111674;19;130139;-62
2023/07/24 04:08:09;;;;;;;0.98;0.60;;;;;;;21.85;47.26;100275.50;16113542;19;129930;-62
2023/07/24 04:13:31;;;;;;;2.65;0.57;;;;;;;21.83;47.15;100268.28;16109651;19;129392;-61
2023/07/24 04:18:53;;;;;;;0.82;0.60;;;;;;;21.82;47.48;100266.59;16106553;19;129486;-61
2023/07/24 04:24:14;;;;;;;3.60;0.68;;;;;;;21.83;47.54;100254.34;16113225;19;130061;-61
2023/07/24 04:29:36;;;;;;;0.50;0.40;;;;;;;21.81;47.37;100264.94;16107219;19;129632;-62
2023/07/24 04:34:58;;;;;;;0.93;0.30;;;;;;;21.83;47.29;100273.84;16107653;19;131351;-61
2023/07/24 04:40:20;;;;;;;0.75;0.45;;;;;;;21.81;47.45;100272.47;16109902;19;129597;-60
2023/07/24 04:45:42;;;;;;;0.65;0.30;;;;;;;21.81;47.06;100281.66;16107659;19;129528;-61
2023/07/24 04:51:05;;;;;;;0.40;0.30;;;;;;;21.81;47.40;100276.06;16104677;19;131026;-61
2023/07/24 04:56:27;;;;;;;0.65;0.30;;;;;;;21.81;47.42;100280.81;16119726;19;129604;-61
2023/07/24 05:01:50;;;;;;;1.00;0.40;;;;;;;21.81;46.97;100280.81;16126550;19;130191;-61
2023/07/24 05:07:12;;;;;;;0.85;0.52;;;;;;;21.79;47.27;100283.88;16121813;19;133618;-61
2023/07/24 05:12:33;;;;;;;0.30;0.30;;;;;;;21.79;47.20;100295.00;16124659;19;129747;-62
2023/07/24 05:17:55;;;;;;;0.70;0.40;;;;;;;21.79;46.94;100295.00;16120710;19;129575;-61
2023/07/24 05:23:17;;;;;;;1.08;0.40;;;;;;;21.79;47.38;100306.16;16121563;19;129638;-63
2023/07/24 05:28:39;;;;;;;0.80;0.45;;;;;;;21.82;47.35;100299.19;16125087;19;129856;-64
2023/07/24 05:34:03;;;;;;;3.35;0.55;;;;;;;21.82;47.08;100300.03;16123703;19;129596;-63
2023/07/24 05:39:25;;;;;;;1.98;0.40;;;;;;;21.82;47.19;100313.94;16123770;19;130864;-63
2023/07/24 05:44:47;;;;;;;2.33;0.40;;;;;;;21.83;47.30;100314.78;16121886;19;129641;-63
2023/07/24 05:50:09;;;;;;;1.85;0.47;;;;;;;21.83;47.17;100318.41;16122073;19;130871;-62
2023/07/24 05:55:31;;;;;;;2.40;0.60;;;;;;;21.85;47.26;100318.09;16122186;19;130167;-63
2023/07/24 06:00:54;;;;;;;1.63;0.50;;;;;;;21.88;47.01;100313.94;16123230;19;130025;-63
2023/07/24 06:06:16;;;;;;;1.55;0.57;;;;;;;22.00;46.89;100310.81;16121110;19;130725;-63
2023/07/24 06:11:41;;;;;;;0.63;0.50;;;;;;;22.05;46.97;100313.59;16122981;19;130910;-63
2023/07/24 06:17:03;;;;;;;4.90;0.82;;;;;;;22.04;46.70;100317.50;16119463;19;129861;-63
2023/07/24 06:22:25;;;;;;;2.25;0.82;;;;;;;22.06;46.84;100310.50;16119299;19;129846;-63
2023/07/24 06:27:47;;;;;;;2.20;0.43;;;;;;;22.07;47.07;100306.59;16121913;19;131202;-64
2023/07/24 06:33:09;;;;;;;2.25;0.70;;;;;;;22.06;46.98;100304.94;16120728;19;130390;-63
2023/07/24 06:38:31;;;;;;;1.00;0.52;;;;;;;22.09;46.86;100306.34;16121810;19;129617;-64
2023/07/24 06:43:53;;;;;;;2.00;0.70;;;;;;;22.10;46.94;100299.63;16119215;19;129435;-64
2023/07/24 06:49:15;;;;;;;4.18;0.50;;;;;;;22.14;46.76;100295.16;16116210;19;130435;-64
2023/07/24 06:54:37;;;;;;;4.47;0.80;;;;;;;22.15;46.86;100291.25;16121386;19;133156;-64
2023/07/24 06:59:59;;;;;;;0.85;0.45;;;;;;;22.15;46.93;100293.22;16121061;19;130466;-64
2023/07/24 07:05:21;;;;;;;2.03;0.68;;;;;;;22.13;46.76;100296.28;16116887;19;130783;-64
2023/07/24 07:10:42;;;;;;;38.15;2.97;;;;;;;22.12;46.86;100298.25;16116123;19;129802;-58
2023/07/24 07:16:04;;;;;;;4.88;0.90;;;;;;;22.14;47.28;100300.72;16119787;19;130744;-61
2023/07/24 07:21:27;;;;;;;5.38;0.95;;;;;;;22.17;46.93;100299.31;16116471;19;129585;-63
2023/07/24 07:26:49;;;;;;;2.97;1.05;;;;;;;22.20;47.25;100288.47;16117605;19;130392;-67
2023/07/24 07:32:11;;;;;;;8.68;0.90;;;;;;;22.25;46.76;100284.84;16116691;19;129612;-50
2023/07/24 07:37:33;;;;;;;3.35;0.90;;;;;;;22.31;46.95;100289.25;16118580;19;130040;-63
2023/07/24 07:42:56;;;;;;;2.28;0.85;;;;;;;22.34;47.27;100291.47;16117540;19;129794;-63
2023/07/24 07:48:18;;;;;;;3.88;0.90;;;;;;;22.39;46.74;100291.47;16114894;19;130068;-59
2023/07/24 07:53:40;;;;;;;5.85;0.88;;;;;;;22.39;47.26;100290.59;16114758;19;129731;-66
2023/07/24 07:59:02;;;;;;;4.63;0.80;;;;;;;22.39;47.30;100280.31;16117229;19;129833;-67
2023/07/24 08:04:24;;;;;;;6.45;1.35;;;;;;;22.40;47.16;100284.72;16116046;19;129402;-64
2023/07/24 08:09:46;;;;;;;2.75;1.00;;;;;;;22.42;47.21;100279.72;16117345;19;129211;-61
2023/07/24 08:15:09;;;;;;;3.63;1.05;;;;;;;22.52;47.01;100275.22;16113992;19;130587;-63
2023/07/24 08:20:34;;;;;;;10.32;1.20;;;;;;;22.61;46.98;100276.25;16115788;19;130801;-67
2023/07/24 08:25:56;;;;;;;2.80;1.25;;;;;;;22.61;47.12;100265.09;16115010;19;129649;-66
2023/07/24 08:31:18;;;;;;;7.90;1.40;;;;;;;22.63;46.68;100268.44;16110224;19;130255;-66
2023/07/24 08:36:40;;;;;;;6.57;0.98;;;;;;;22.69;47.13;100258.91;16116695;19;130045;-63
2023/07/24 08:42:12;;;;;;;3.45;1.00;;;;;;;22.71;46.89;100256.66;16114334;19;129569;-63
2023/07/24 08:47:35;;;;;;;4.35;0.80;;;;;;;22.68;46.77;100243.28;16110785;19;130631;-64
2023/07/24 08:52:58;;;;;;;4.25;1.10;;;;;;;22.66;47.27;100237.16;16117625;19;130875;-62
2023/07/24 08:58:20;;;;;;;6.57;1.20;;;;;;;22.62;47.10;100233.31;16117174;19;130316;-61
2023/07/24 09:03:41;;;;;;;2.10;0.85;;;;;;;22.58;46.83;100233.06;16120262;19;130315;-60
2023/07/24 09:09:13;;;;;;;2.20;1.02;;;;;;;22.59;47.06;100222.75;16114650;19;129754;-67
2023/07/24 09:14:35;;;;;;;7.93;0.98;;;;;;;22.53;47.14;100213.59;16116632;19;129634;-63
2023/07/24 09:19:57;;;;;;;3.80;1.02;;;;;;;22.51;47.24;100237.31;16110503;19;131720;-62
2023/07/24 09:25:33;;;;;;;2.50;1.00;;;;;;;22.50;47.25;100218.91;16109162;19;129706;-61
2023/07/24 09:30:58;;;;;;;5.30;0.82;;;;;;;22.46;47.27;100235.41;16111314;19;129656;-65
2023/07/24 09:36:20;;;;;;;3.72;1.00;;;;;;;22.42;47.49;100229.53;16120447;19;129679;-60
2023/07/24 09:41:42;;;;;;;2.70;1.13;;;;;;;22.39;47.42;100210.63;16115528;19;130732;-62
2023/07/24 09:47:04;;;;;;;6.47;0.98;;;;;;;22.36;47.14;100194.50;16118038;19;129752;-65
2023/07/24 09:52:47;;;;;;;3.95;1.20;;;;;;;22.34;47.70;100196.72;16135177;19;131405;-61
2023/07/24 09:58:11;;;;;;;4.57;1.23;;;;;;;22.34;47.18;100219.03;16133963;19;129887;-61
2023/07/24 10:03:39;;;;;;;3.78;1.40;;;;;;;22.35;47.17;100219.84;16137357;19;129771;-61
2023/07/24 10:09:06;;;;;;;2.35;1.25;;;;;;;22.32;47.64;100229.63;16130696;19;129961;-62
2023/07/24 10:14:29;;;;;;;2.42;1.05;;;;;;;22.32;47.17;100235.19;16138242;19;129796;-61
2023/07/24 10:19:51;;;;;;;2.78;0.93;;;;;;;22.30;47.42;100231.84;16136182;19;130080;-61
2023/07/24 10:25:13;;;;;;;5.43;1.10;;;;;;;22.31;47.14;100235.50;16147997;19;129737;-61
2023/07/24 10:30:40;;;;;;;3.15;1.17;;;;;;;22.30;47.43;100215.13;16161159;19;129202;-62
2023/07/24 10:36:09;;;;;;;2.58;1.00;;;;;;;22.29;47.39;100224.63;16177664;19;129188;-61
2023/07/24 10:41:37;;;;;;;3.78;1.00;;;;;;;22.30;46.91;100236.59;16192469;19;130425;-61
2023/07/24 10:46:59;;;;;;;4.70;1.20;;;;;;;22.30;47.43;100253.31;16193216;19;129425;-61
2023/07/24 10:52:27;;;;;;;3.63;1.10;;;;;;;22.31;47.08;100250.25;16195171;19;131067;-60
2023/07/24 10:57:52;;;;;;;5.93;1.30;;;;;;;22.34;47.18;100248.84;16195600;19;129010;-61
2023/07/24 11:03:15;;;;;;;7.57;1.45;;;;;;;22.34;46.91;100241.31;16196357;19;129903;-60
2023/07/24 11:08:40;;;;;;;2.45;1.23;;;;;;;22.37;46.88;100254.69;16193901;19;133024;-61
2023/07/24 11:14:02;;;;;;;3.63;1.50;;;;;;;22.41;47.28;100252.97;16136249;19;130159;-61
2023/07/24 11:19:24;;;;;;;4.65;1.63;;;;;;;22.49;46.63;100245.13;16120820;19;129654;-63
2023/07/24 11:24:47;;;;;;;5.43;1.77;;;;;;;22.52;47.01;100244.56;16118661;19;130353;-60
2023/07/24 11:30:11;;;;;;;9.05;1.80;;;;;;;22.54;46.74;100257.06;16111556;19;131174;-73
2023/07/24 11:35:35;;;;;;;5.40;1.98;;;;;;;22.56;47.15;100256.78;16115397;19;129529;-62
2023/07/24 11:40:57;;;;;;;7.70;1.92;;;;;;;22.57;47.22;100248.13;16131706;19;130498;-65
2023/07/24 11:46:26;;;;;;;6.43;1.90;;;;;;;22.55;47.25;100253.16;16164686;19;130258;-72
2023/07/24 11:51:49;;;;;;;6.05;2.10;;;;;;;22.57;47.47;100259.28;16138310;19;130264;-62
2023/07/24 11:57:17;;;;;;;4.60;1.80;;;;;;;22.59;47.33;100256.19;16127014;19;129547;-60
2023/07/24 12:02:39;;;;;;;5.07;1.80;;;;;;;22.58;47.47;100255.38;16151941;19;129838;-62
2023/07/24 12:08:01;;;;;;;7.05;2.03;;;;;;;22.59;47.33;100264.56;16123408;19;130158;-62
2023/07/24 12:13:25;;;;;;;3.30;1.50;;;;;;;22.61;47.76;100265.09;16122467;19;129582;-62
2023/07/24 12:18:47;;;;;;;6.30;1.92;;;;;;;22.66;47.50;100262.25;16126236;19;129778;-62
2023/07/24 12:24:09;;;;;;;3.78;2.00;;;;;;;22.67;47.40;100241.63;16122271;19;129626;-62
2023/07/24 12:29:31;;;;;;;2.92;1.73;;;;;;;22.68;47.47;100243.28;16128709;19;129293;-72
2023/07/24 12:34:53;;;;;;;4.70;1.90;;;;;;;22.70;47.45;100235.47;16121904;19;131773;-62
2023/07/24 12:40:15;;;;;;;9.15;2.10;;;;;;;22.73;47.57;100240.47;16108523;19;130754;-64
2023/07/24 12:45:37;;;;;;;3.35;2.08;;;;;;;22.71;47.42;100239.09;16116758;19;130708;-63
2023/07/24 12:51:00;;;;;;;5.40;1.90;;;;;;;22.66;47.43;100234.38;16111551;19;129962;-63
2023/07/24 12:56:23;;;;;;;7.13;1.85;;;;;;;22.62;47.53;100233.31;16106908;19;131296;-63
2023/07/24 13:01:46;;;;;;;8.75;2.08;;;;;;;22.58;47.35;100221.06;16103032;19;130232;-64
2023/07/24 13:07:08;;;;;;;4.68;1.75;;;;;;;22.57;47.55;100228.63;16104036;19;129962;-64
2023/07/24 13:12:30;;;;;;;3.40;1.92;;;;;;;22.58;47.47;100229.44;16105074;19;129493;-64
2023/07/24 13:17:52;;;;;;;5.45;2.17;;;;;;;22.62;47.29;100227.75;16121294;19;129980;-64
2023/07/24 13:23:14;;;;;;;3.63;1.80;;;;;;;22.63;47.30;100223.84;16125433;19;129885;-64
2023/07/24 13:28:39;;;;;;;7.35;2.10;;;;;;;22.63;47.24;100218.25;16120654;19;129697;-64
2023/07/24 13:34:02;;;;;;;3.90;1.63;;;;;;;22.64;47.21;100214.34;16121635;19;129864;-64
2023/07/24 13:39:23;;;;;;;1.83;1.40;;;;;;;22.63;47.51;100223.84;16119321;19;129856;-64
2023/07/24 13:44:45;;;;;;;8.05;1.90;;;;;;;22.62;47.25;100218.53;16117729;19;131405;-65
2023/07/24 13:50:08;;;;;;;4.13;1.67;;;;;;;22.60;47.03;100224.41;16119992;19;130826;-63
2023/07/24 13:55:30;;;;;;;5.85;2.05;;;;;;;22.57;47.39;100217.47;16120844;19;130584;-74
2023/07/24 14:00:52;;;;;;;3.03;1.80;;;;;;;22.55;47.20;100238.38;16122106;19;129890;-69
2023/07/24 14:06:14;;;;;;;6.95;2.30;;;;;;;22.49;46.96;100257.09;16125972;19;130393;-70
2023/07/24 14:11:36;;;;;;;3.30;1.98;;;;;;;22.47;47.21;100252.94;16126900;19;129834;-70
2023/07/24 14:16:58;;;;;;;4.22;2.38;;;;;;;22.42;47.14;100240.69;16124662;19;130633;-69
2023/07/24 14:22:20;;;;;;;7.03;2.08;;;;;;;22.42;47.16;100274.13;16116960;19;129811;-66
2023/07/24 14:27:42;;;;;;;17.42;3.20;;;;;;;22.41;47.33;100299.53;16108480;19;130832;-63
2023/07/24 14:33:04;;;;;;;13.57;3.10;;;;;;;22.38;47.11;100298.16;16128971;19;129513;-73
2023/07/24 14:38:26;;;;;;;17.08;3.05;;;;;;;22.37;47.35;100309.56;16119958;19;130447;-62
2023/07/24 14:43:48;;;;;;;13.63;3.00;;;;;;;22.35;47.48;100307.06;16114051;19;130969;-63
2023/07/24 14:49:09;;;;;;;21.42;3.67;;;;;;;22.33;47.42;100306.53;16115590;19;129988;-62
2023/07/24 14:54:32;;;;;;;20.55;3.42;;;;;;;22.31;47.44;100311.53;16122649;19;130410;-61
2023/07/24 14:59:56;;;;;;;13.13;3.22;;;;;;;22.30;47.87;100303.47;16119159;19;130746;-63
2023/07/24 15:05:18;;;;;;;11.25;2.95;;;;;;;22.30;47.91;100298.72;16116560;19;130500;-62
2023/07/24 15:10:40;;;;;;;29.55;3.85;;;;;;;22.31;48.69;100302.38;16116567;19;130699;-62
2023/07/24 15:16:02;;;;;;;33.13;4.15;;;;;;;22.36;48.77;100293.97;16118546;19;129414;-62
2023/07/24 15:21:25;;;;;;;16.40;3.17;;;;;;;22.40;49.30;100301.44;16115620;19;129972;-61
2023/07/24 15:26:47;;;;;;;25.63;3.92;;;;;;;22.44;49.58;100305.34;16115657;19;129619;-70
2023/07/24 15:32:09;;;;;;;39.33;3.85;;;;;;;22.49;49.53;100304.47;16116696;19;129700;-60
2023/07/24 15:37:31;;;;;;;44.08;4.30;;;;;;;22.58;49.51;100304.72;16113842;19;130123;-55
2023/07/24 15:42:53;;;;;;;27.77;4.00;;;;;;;22.64;49.45;100311.94;16110887;19;129984;-52
2023/07/24 15:48:15;;;;;;;28.38;3.90;;;;;;;22.68;49.83;100303.81;16116226;19;130662;-60
2023/07/24 15:53:46;;;;;;;27.70;4.38;;;;;;;22.69;49.95;100323.03;16114966;19;130490;-60
2023/07/24 15:59:11;;;;;;;36.28;5.03;;;;;;;22.70;49.76;100324.69;16113941;19;129560;-59
2023/07/24 16:04:33;;;;;;;29.48;4.55;;;;;;;22.70;50.15;100333.06;16114724;19;129315;-59
2023/07/24 16:09:55;;;;;;;37.15;4.68;;;;;;;22.70;50.02;100335.84;16112277;19;129862;-58
2023/07/24 16:15:17;;;;;;;37.25;4.93;;;;;;;22.71;50.15;100337.53;16114962;19;130143;-60
2023/07/24 16:20:59;;;;;;;40.03;4.68;;;;;;;22.70;50.02;100335.84;16116968;19;130247;-60
2023/07/24 16:26:24;;;;;;;25.02;5.28;;;;;;;22.67;50.24;100330.84;16122260;19;129728;-60
2023/07/24 16:31:46;;;;;;;44.13;6.00;;;;;;;22.67;50.18;100330.84;16119609;19;130776;-60
2023/07/24 16:37:08;;;;;;;32.50;5.22;;;;;;;22.68;50.43;100332.50;16121574;19;129611;-59
2023/07/24 16:42:30;;;;;;;21.20;4.95;;;;;;;22.67;50.60;100335.59;16121116;19;130989;-60
2023/07/24 16:47:53;;;;;;;32.22;5.60;;;;;;;22.66;50.45;100354.28;16119331;19;130439;-60
2023/07/24 16:53:15;;;;;;;19.63;4.68;;;;;;;22.66;50.49;100362.63;16128263;19;129915;-60
2023/07/24 16:58:38;;;;;;;17.23;4.55;;;;;;;22.66;50.60;100373.78;16122178;19;134413;-59
2023/07/24 17:04:00;;;;;;;17.75;4.93;;;;;;;22.67;50.99;100375.47;16123048;19;131783;-60
2023/07/24 17:09:22;;;;;;;51.33;6.82;;;;;;;22.69;50.61;100395.53;16122236;19;129488;-59
2023/07/24 17:14:44;;;;;;;35.85;5.32;;;;;;;22.73;50.76;100391.06;16129051;19;130451;-59
2023/07/24 17:20:06;;;;;;;32.00;5.80;;;;;;;22.74;50.50;100398.31;16119465;19;130301;-60
2023/07/24 17:25:28;;;;;;;33.92;5.13;;;;;;;22.74;50.51;100398.31;16119934;19;131811;-61
2023/07/24 17:30:51;;;;;;;15.32;4.45;;;;;;;22.75;50.62;100418.63;16120517;19;131125;-59
2023/07/24 17:36:12;;;;;;;24.73;5.47;;;;;;;22.79;50.63;100421.69;16116826;19;130048;-61
2023/07/24 17:41:34;;;;;;;23.15;4.65;;;;;;;22.79;51.04;100421.69;16120313;19;130169;-58
2023/07/24 17:46:56;;;;;;;31.35;5.15;;;;;;;22.79;50.44;100430.91;16118271;19;129527;-58
2023/07/24 17:52:19;;;;;;;32.40;5.32;;;;;;;22.80;50.74;100434.50;16110514;19;129467;-59
2023/07/24 17:57:41;;;;;;;33.58;5.03;;;;;;;22.78;50.42;100447.91;16113654;19;129952;-59
2023/07/24 18:03:03;;;;;;;22.63;4.07;;;;;;;22.73;50.48;100451.53;16102723;19;129600;-58
2023/07/24 18:08:25;;;;;;;16.73;4.57;;;;;;;22.70;50.31;100450.19;16115927;19;130466;-59
2023/07/24 18:13:47;;;;;;;24.00;4.30;;;;;;;22.67;50.46;100461.91;16110757;19;130358;-60
2023/07/24 18:19:09;;;;;;;17.05;4.10;;;;;;;22.64;50.16;100453.28;16099125;19;131375;-59
2023/07/24 18:24:31;;;;;;;28.17;3.85;;;;;;;22.62;50.33;100463.88;16104648;19;130156;-59
2023/07/24 18:29:53;;;;;;;13.40;3.47;;;;;;;22.58;50.27;100471.97;16103045;19;129954;-59
2023/07/24 18:35:16;;;;;;;15.65;3.85;;;;;;;22.55;50.27;100472.53;16109504;19;129488;-59
2023/07/24 18:40:38;;;;;;;12.68;3.60;;;;;;;22.52;50.14;100484.28;16116110;19;130466;-59
2023/07/24 18:46:01;;;;;;;23.38;3.60;;;;;;;22.50;50.15;100487.31;16110086;19;130144;-59
2023/07/24 18:51:23;;;;;;;14.45;3.20;;;;;;;22.48;49.94;100494.31;16117220;19;130244;-59
2023/07/24 18:56:45;;;;;;;14.20;2.45;;;;;;;22.47;50.13;100504.63;16119450;19;131085;-60
2023/07/24 19:02:07;;;;;;;10.20;2.92;;;;;;;22.44;49.91;100503.22;16113319;19;130203;-59
2023/07/24 19:07:29;;;;;;;8.50;2.72;;;;;;;22.43;49.81;100509.94;16115573;19;131006;-59
2023/07/24 19:12:51;;;;;;;10.75;2.65;;;;;;;22.40;49.48;100507.69;16113263;19;129811;-58
2023/07/24 19:18:13;;;;;;;12.48;2.83;;;;;;;22.39;49.86;100528.34;16116135;19;131360;-60
2023/07/24 19:23:36;;;;;;;6.72;2.30;;;;;;;22.36;49.98;100520.53;16114774;19;131010;-60
2023/07/24 19:28:58;;;;;;;7.30;2.83;;;;;;;22.35;49.51;100530.03;16116763;19;130288;-60
2023/07/24 19:34:20;;;;;;;7.95;2.35;;;;;;;22.33;49.97;100543.41;16113612;19;131466;-59
2023/07/24 19:39:42;;;;;;;7.95;2.15;;;;;;;22.31;49.65;100551.19;16112957;19;131017;-59
2023/07/24 19:45:05;;;;;;;8.63;2.20;;;;;;;22.29;49.68;100553.41;16112455;19;129941;-59
2023/07/24 19:50:27;;;;;;;10.77;2.25;;;;;;;22.28;49.82;100551.75;16110435;19;130297;-59
2023/07/24 19:55:50;;;;;;;9.20;2.53;;;;;;;22.27;49.88;100567.66;16107826;19;131760;-60
2023/07/24 20:01:12;;;;;;;4.30;1.90;;;;;;;22.26;49.54;100565.97;16107788;19;133292;-59
2023/07/24 20:06:34;;;;;;;5.72;2.05;;;;;;;22.25;49.68;100566.25;16110085;19;129854;-59
2023/07/24 20:11:56;;;;;;;7.93;2.33;;;;;;;22.25;49.76;100569.06;16110069;19;130620;-60
2023/07/24 20:17:18;;;;;;;7.70;2.47;;;;;;;22.25;49.50;100569.06;16103931;19;130455;-59
2023/07/24 20:22:40;;;;;;;5.95;1.98;;;;;;;22.21;49.54;100571.56;16107553;19;129945;-59
2023/07/24 20:28:02;;;;;;;6.53;2.38;;;;;;;22.20;49.69;100574.59;16093093;19;131102;-60
2023/07/24 20:33:26;;;;;;;4.72;1.80;;;;;;;22.20;49.88;100577.38;16099013;19;130223;-65
2023/07/24 20:38:48;;;;;;;5.28;2.13;;;;;;;22.19;49.61;100597.97;16091205;19;132065;-60
2023/07/24 20:44:10;;;;;;;5.30;2.08;;;;;;;22.17;50.16;100595.50;16102257;19;129505;-60
2023/07/24 20:49:34;;;;;;;5.95;1.75;;;;;;;22.18;50.08;100596.31;16103387;19;130985;-60
2023/07/24 20:54:56;;;;;;;5.72;1.85;;;;;;;22.16;50.15;100592.97;16107799;19;130229;-59
2023/07/24 21:00:18;;;;;;;3.75;1.73;;;;;;;22.14;50.11;100596.03;16102191;19;130001;-59
2023/07/24 21:05:40;;;;;;;6.00;1.80;;;;;;;22.15;50.08;100605.25;16101810;19;131473;-59
2023/07/24 21:11:02;;;;;;;13.20;2.30;;;;;;;22.12;50.00;100609.41;16104172;19;130374;-58
2023/07/24 21:16:24;;;;;;;3.67;1.73;;;;;;;22.12;50.05;100614.97;16098285;19;130475;-59
2023/07/24 21:21:46;;;;;;;5.53;1.58;;;;;;;22.10;50.22;100606.91;16105126;19;129538;-59
2023/07/24 21:27:08;;;;;;;5.80;1.80;;;;;;;22.10;50.33;100614.41;16097309;19;130556;-58
2023/07/24 21:32:30;;;;;;;9.57;1.95;;;;;;;22.08;50.31;100606.34;16108038;19;130086;-59
2023/07/24 21:37:52;;;;;;;8.07;1.98;;;;;;;22.08;50.81;100597.16;16114868;19;130254;-58
2023/07/24 21:43:14;;;;;;;5.43;2.03;;;;;;;22.07;50.53;100601.06;16120523;19;129550;-58
2023/07/24 21:48:36;;;;;;;3.78;1.38;;;;;;;22.07;50.25;100607.47;16120407;19;129414;-58
2023/07/24 21:53:58;;;;;;;4.90;1.75;;;;;;;22.05;50.68;100592.97;16116948;19;131125;-58
2023/07/24 21:59:20;;;;;;;10.10;2.00;;;;;;;22.06;50.51;100614.13;16115910;19;129829;-59
2023/07/24 22:04:42;;;;;;;4.53;1.60;;;;;;;22.04;50.60;100624.72;16115286;19;130179;-58
2023/07/24 22:10:04;;;;;;;8.68;1.50;;;;;;;22.03;51.22;100617.47;16116930;19;130307;-58
2023/07/24 22:15:26;;;;;;;4.40;1.42;;;;;;;22.03;51.38;100617.47;16117375;19;130090;-57
2023/07/24 22:20:48;;;;;;;5.78;1.38;;;;;;;22.01;51.14;100614.16;16118178;19;130625;-58
2023/07/24 22:26:10;;;;;;;4.13;1.50;;;;;;;22.01;51.27;100625.28;16122610;19;131080;-58
2023/07/24 22:31:32;;;;;;;3.75;1.80;;;;;;;22.00;51.11;100618.03;16118541;19;130585;-58
2023/07/24 22:36:54;;;;;;;4.57;1.67;;;;;;;22.00;50.90;100622.75;16122559;19;129579;-59
2023/07/24 22:42:17;;;;;;;3.97;1.50;;;;;;;21.98;51.19;100623.88;16115031;19;129251;-58
2023/07/24 22:47:38;;;;;;;2.30;1.30;;;;;;;21.98;51.47;100620.28;16112681;19;131293;-57
2023/07/24 22:53:01;;;;;;;4.10;1.42;;;;;;;21.97;51.36;100630.56;16116087;19;130245;-58
2023/07/24 22:58:24;;;;;;;4.13;1.40;;;;;;;21.96;51.57;100625.28;16116122;19;129870;-59
2023/07/24 23:03:47;;;;;;;3.70;1.50;;;;;;;21.95;51.74;100616.09;16114105;19;130367;-58
2023/07/24 23:09:10;;;;;;;2.30;1.23;;;;;;;21.94;51.55;100613.56;16113844;19;130822;-56
2023/07/24 23:14:32;;;;;;;3.85;1.45;;;;;;;21.92;51.19;100618.56;16115471;19;133530;-57
2023/07/24 23:19:54;;;;;;;3.72;1.40;;;;;;;21.91;51.10;100614.97;16114377;19;131125;-54
2023/07/24 23:25:15;;;;;;;3.22;1.65;;;;;;;21.91;51.44;100614.16;16122552;19;130951;-57
2023/07/24 23:30:41;;;;;;;3.70;1.25;;;;;;;21.91;51.44;100628.88;16118200;19;129972;-56
2023/07/24 23:36:09;;;;;;;2.33;1.30;;;;;;;21.90;51.40;100629.19;16115987;19;130955;-54
2023/07/24 23:41:30;;;;;;;3.85;1.48;;;;;;;21.90;51.27;100623.59;16123902;19;129708;-53
2023/07/24 23:46:53;;;;;;;3.83;1.50;;;;;;;21.89;51.42;100627.50;16121905;19;130968;-54
2023/07/24 23:52:15;;;;;;;3.53;1.60;;;;;;;21.87;51.15;100624.97;16117487;19;129626;-56
2023/07/24 23:57:37;;;;;;;2.88;1.30;;;;;;;21.87;51.36;100616.63;16126755;19;134880;-57
